createdAt,value
2019-04-29T00:02:27.127Z,8.95
2019-04-29T00:04:57.479Z,8.08
2019-04-29T00:07:27.807Z,8.28
2019-04-29T00:09:59.245Z,7.83
2019-04-29T00:12:30.643Z,8.68
2019-04-29T00:15:02.642Z,7.75
2019-04-29T00:17:34.753Z,8.15
2019-04-29T00:20:16.960Z,7.70
2019-04-29T00:22:47.301Z,8.50
2019-04-29T00:25:17.649Z,7.90
2019-04-29T00:27:47.985Z,8.40
2019-04-29T00:30:30.757Z,8.08
2019-04-29T00:33:01.087Z,8.08
2019-04-29T00:35:31.502Z,8.08
2019-04-29T00:38:06.658Z,8.40
2019-04-29T00:40:41.450Z,8.10
2019-04-29T00:43:16.107Z,8.63
2019-04-29T00:45:46.533Z,8.15
2019-04-29T00:48:17.238Z,9.13
2019-04-29T00:50:47.581Z,8.00
2019-04-29T00:53:17.912Z,8.43
2019-04-29T00:55:49.902Z,8.58
2019-04-29T00:58:21.306Z,8.58
2019-04-29T01:00:51.641Z,8.78
2019-04-29T01:03:21.973Z,9.03
2019-04-29T01:05:52.308Z,9.28
2019-04-29T01:08:22.637Z,8.38
2019-04-29T01:10:52.979Z,8.63
2019-04-29T01:13:23.309Z,8.08
2019-04-29T01:15:53.654Z,8.60
2019-04-29T01:18:23.981Z,8.73
2019-04-29T01:20:54.330Z,8.63
2019-04-29T01:23:24.660Z,9.83
2019-04-29T01:25:56.644Z,9.08
2019-04-29T01:28:40.591Z,9.28
2019-04-29T01:31:12.576Z,8.53
2019-04-29T01:33:44.356Z,9.30
2019-04-29T01:36:21.879Z,9.70
2019-04-29T01:38:53.849Z,9.63
2019-04-29T01:41:28.492Z,9.05
2019-04-29T01:44:00.291Z,9.40
2019-04-29T01:46:30.811Z,8.60
2019-04-29T01:49:01.133Z,9.23
2019-04-29T01:51:32.555Z,8.68
2019-04-29T01:54:02.882Z,9.00
2019-04-29T01:56:33.230Z,8.20
2019-04-29T01:59:03.568Z,9.50
2019-04-29T02:01:33.922Z,8.93
2019-04-29T02:04:04.588Z,9.13
2019-04-29T02:06:34.934Z,9.05
2019-04-29T02:09:10.215Z,9.25
2019-04-29T02:11:41.204Z,9.35
2019-04-29T02:14:11.529Z,8.55
2019-04-29T02:16:41.881Z,8.70
2019-04-29T02:19:12.216Z,9.25
2019-04-29T02:21:44.221Z,8.63
2019-04-29T02:24:18.868Z,8.75
2019-04-29T02:26:49.209Z,8.78
2019-04-29T02:29:19.542Z,8.35
2019-04-29T02:31:49.903Z,7.87
2019-04-29T02:34:20.245Z,7.92
2019-04-29T02:36:50.602Z,8.90
2019-04-29T02:42:41.884Z,8.00
2019-04-29T02:45:23.206Z,8.60
2019-04-29T02:47:53.554Z,8.78
2019-04-29T02:50:23.876Z,7.60
2019-04-29T02:52:54.283Z,7.87
2019-04-29T02:55:28.892Z,8.75
2019-04-29T02:58:00.888Z,8.73
2019-04-29T03:00:48.790Z,8.25
2019-04-29T03:03:20.772Z,8.75
2019-04-29T03:05:52.742Z,8.18
2019-04-29T03:08:23.235Z,8.68
2019-04-29T03:10:53.629Z,8.13
2019-04-29T03:13:23.967Z,7.65
2019-04-29T03:15:54.565Z,8.98
2019-04-29T03:18:26.540Z,8.25
2019-04-29T03:20:58.504Z,8.35
2019-04-29T03:23:29.034Z,7.40
2019-04-29T03:25:59.356Z,7.60
2019-04-29T03:28:29.704Z,7.65
2019-04-29T03:31:00.033Z,8.50
2019-04-29T03:33:30.448Z,7.67
2019-04-29T03:36:00.786Z,7.75
2019-04-29T03:38:31.238Z,7.97
2019-04-29T03:41:01.551Z,8.13
2019-04-29T03:43:31.895Z,7.90
2019-04-29T03:46:02.221Z,8.58
2019-04-29T03:48:32.572Z,7.58
2019-04-29T03:51:02.900Z,7.95
2019-04-29T03:53:33.237Z,8.48
2019-04-29T03:56:03.561Z,8.65
2019-04-29T03:58:33.911Z,8.10
2019-04-29T04:01:16.236Z,8.65
2019-04-29T04:06:47.706Z,8.43
2019-04-29T04:09:19.708Z,8.10
2019-04-29T04:11:50.041Z,7.45
2019-04-29T04:14:20.375Z,8.53
2019-04-29T04:16:58.379Z,7.67
2019-04-29T04:19:30.356Z,7.78
2019-04-29T04:22:00.685Z,7.53
2019-04-29T04:24:31.038Z,7.80
2019-04-29T04:27:01.368Z,7.85
2019-04-29T04:29:31.712Z,8.68
2019-04-29T04:32:02.045Z,7.67
2019-04-29T04:34:32.458Z,8.05
2019-04-29T04:37:02.788Z,8.05
2019-04-29T04:39:34.770Z,7.72
2019-04-29T04:42:17.307Z,7.95
2019-04-29T04:44:50.623Z,8.08
2019-04-29T04:47:20.950Z,7.90
2019-04-29T04:49:51.284Z,8.00
2019-04-29T04:52:21.609Z,8.25
2019-04-29T04:54:53.594Z,8.73
2019-04-29T04:57:23.913Z,8.28
2019-04-29T04:59:54.260Z,10.15
2019-04-29T05:02:26.281Z,9.00
2019-04-29T05:04:56.610Z,10.40
2019-04-29T05:07:26.984Z,10.75
2019-04-29T05:09:57.298Z,10.68
2019-04-29T05:12:27.638Z,11.15
2019-04-29T05:14:57.983Z,10.18
2019-04-29T05:17:28.308Z,10.48
2019-04-29T05:19:59.657Z,10.35
2019-04-29T05:22:29.984Z,8.95
2019-04-29T05:25:00.334Z,9.08
2019-04-29T05:27:30.666Z,11.70
2019-04-29T05:30:01.042Z,8.23
2019-04-29T05:32:31.385Z,8.85
2019-04-29T05:35:03.360Z,8.95
2019-04-29T05:37:41.329Z,7.85
2019-04-29T05:40:13.545Z,9.75
2019-04-29T05:42:43.880Z,7.62
2019-04-29T05:45:15.946Z,7.33
2019-04-29T05:47:47.912Z,7.33
2019-04-29T05:50:28.967Z,8.13
2019-04-29T05:53:00.950Z,7.15
2019-04-29T05:55:31.298Z,7.12
2019-04-29T05:58:13.610Z,6.65
2019-04-29T06:00:45.965Z,6.70
2019-04-29T06:03:16.289Z,6.55
2019-04-29T06:05:46.644Z,6.80
2019-04-29T06:08:16.972Z,6.67
2019-04-29T06:10:47.305Z,6.80
2019-04-29T06:13:17.639Z,6.20
2019-04-29T06:15:48.055Z,6.28
2019-04-29T06:18:22.155Z,6.60
2019-04-29T06:20:50.380Z,5.87
2019-04-29T06:23:23.227Z,6.05
2019-04-29T06:25:52.765Z,5.85
2019-04-29T06:28:26.332Z,5.67
2019-04-29T06:30:55.147Z,5.58
2019-04-29T06:33:29.151Z,7.37
2019-04-29T06:35:57.535Z,10.65
2019-04-29T06:38:27.890Z,13.98
2019-04-29T06:40:58.240Z,15.23
2019-04-29T06:43:30.364Z,18.15
2019-04-29T06:46:00.630Z,17.27
2019-04-29T06:48:30.979Z,15.85
2019-04-29T06:51:01.330Z,16.40
2019-04-29T06:53:32.729Z,13.45
2019-04-29T06:56:03.076Z,14.18
2019-04-29T06:58:36.588Z,15.63
2019-04-29T07:01:06.451Z,14.28
2019-04-29T07:03:36.794Z,14.55
2019-04-29T07:06:08.063Z,12.88
2019-04-29T07:08:38.399Z,12.85
2019-04-29T07:11:08.802Z,12.70
2019-04-29T07:13:39.107Z,11.93
2019-04-29T07:16:09.525Z,9.80
2019-04-29T07:18:47.804Z,8.55
2019-04-29T07:21:13.040Z,9.53
2019-04-29T07:23:43.518Z,8.80
2019-04-29T07:26:13.861Z,8.13
2019-04-29T07:28:44.196Z,7.35
2019-04-29T07:31:14.535Z,7.83
2019-04-29T07:33:44.879Z,6.92
2019-04-29T07:36:18.730Z,7.12
2019-04-29T07:38:51.765Z,6.60
2019-04-29T07:41:20.882Z,7.05
2019-04-29T07:43:51.159Z,6.33
2019-04-29T07:46:55.741Z,6.67
2019-04-29T07:49:12.708Z,6.75
2019-04-29T07:51:42.513Z,6.67
2019-04-29T07:54:16.034Z,6.80
2019-04-29T07:56:45.365Z,6.85
2019-04-29T07:59:15.771Z,5.62
2019-04-29T08:01:46.105Z,6.28
2019-04-29T08:04:16.469Z,6.47
2019-04-29T08:06:47.139Z,5.87
2019-04-29T08:09:17.709Z,5.75
2019-04-29T08:11:49.191Z,5.67
2019-04-29T08:14:21.639Z,6.10
2019-04-29T08:16:51.980Z,5.33
2019-04-29T08:19:24.771Z,5.00
2019-04-29T08:21:54.357Z,5.10
2019-04-29T08:24:24.698Z,4.50
2019-04-29T08:26:55.033Z,4.60
2019-04-29T08:29:25.378Z,4.60
2019-04-29T08:31:57.358Z,4.53
2019-04-29T08:34:27.772Z,4.10
2019-04-29T08:36:58.104Z,3.95
2019-04-29T08:39:29.513Z,3.50
2019-04-29T08:42:03.812Z,3.90
2019-04-29T08:44:41.602Z,4.53
2019-04-29T08:47:30.547Z,4.30
2019-04-29T08:49:57.403Z,4.62
2019-04-29T08:52:27.762Z,4.50
2019-04-29T08:54:58.101Z,4.42
2019-04-29T08:57:31.730Z,4.72
2019-04-29T09:00:00.468Z,4.80
2019-04-29T09:02:34.994Z,4.85
2019-04-29T09:05:06.922Z,3.95
2019-04-29T09:07:36.168Z,4.05
2019-04-29T09:10:09.079Z,4.15
2019-04-29T09:12:39.411Z,4.20
2019-04-29T09:15:11.937Z,4.62
2019-04-29T09:17:42.273Z,4.47
2019-04-29T09:20:13.123Z,4.60
2019-04-29T09:22:45.095Z,4.50
2019-04-29T09:25:25.697Z,4.15
2019-04-29T09:27:56.308Z,4.42
2019-04-29T09:30:25.612Z,4.50
2019-04-29T09:32:55.940Z,4.53
2019-04-29T09:35:28.738Z,4.42
2019-04-29T09:37:59.604Z,4.80
2019-04-29T09:40:31.685Z,5.25
2019-04-29T09:43:15.220Z,5.50
2019-04-29T09:45:58.771Z,5.30
2019-04-29T09:48:27.207Z,4.65
2019-04-29T09:50:57.552Z,5.25
2019-04-29T09:53:27.961Z,4.83
2019-04-29T09:55:58.673Z,5.20
2019-04-29T09:58:29.017Z,5.05
2019-04-29T10:01:13.996Z,4.60
2019-04-29T10:03:46.670Z,5.37
2019-04-29T10:06:18.646Z,4.62
2019-04-29T10:08:48.991Z,4.80
2019-04-29T10:11:19.404Z,5.22
2019-04-29T10:13:50.803Z,5.28
2019-04-29T10:16:22.959Z,4.83
2019-04-29T10:19:07.118Z,4.97
2019-04-29T10:21:37.471Z,4.92
2019-04-29T10:24:08.991Z,5.08
2019-04-29T10:26:39.328Z,5.37
2019-04-29T10:29:13.754Z,5.72
2019-04-29T10:31:43.349Z,5.35
2019-04-29T10:34:13.694Z,5.55
2019-04-29T10:36:44.091Z,5.53
2019-04-29T10:39:22.608Z,5.92
2019-04-29T10:41:52.089Z,4.72
2019-04-29T10:44:30.014Z,4.90
2019-04-29T10:47:15.147Z,4.92
2019-04-29T10:50:01.953Z,4.53
2019-04-29T10:52:34.428Z,4.17
2019-04-29T10:55:08.289Z,3.83
2019-04-29T10:57:38.962Z,3.52
2019-04-29T11:00:29.521Z,3.58
2019-04-29T11:02:59.851Z,4.05
2019-04-29T11:05:35.030Z,3.58
2019-04-29T11:08:07.812Z,4.22
2019-04-29T11:10:38.161Z,3.20
2019-04-29T11:13:08.564Z,3.35
2019-04-29T11:15:38.975Z,3.98
2019-04-29T11:18:09.382Z,3.35
2019-04-29T11:20:39.748Z,3.10
2019-04-29T11:23:16.662Z,3.40
2019-04-29T11:26:02.281Z,3.25
2019-04-29T11:28:33.054Z,3.08
2019-04-29T11:31:03.436Z,3.17
2019-04-29T11:33:39.573Z,2.90
2019-04-29T11:36:09.100Z,3.08
2019-04-29T11:38:40.794Z,2.95
2019-04-29T11:41:12.216Z,2.62
2019-04-29T11:43:46.698Z,2.67
2019-04-29T11:46:15.834Z,2.85
2019-04-29T11:48:46.171Z,2.80
2019-04-29T11:51:23.954Z,2.37
2019-04-29T11:53:54.315Z,2.65
2019-04-29T11:56:24.819Z,2.75
2019-04-29T11:59:13.006Z,3.17
2019-04-29T12:01:52.086Z,3.30
2019-04-29T12:04:28.685Z,2.87
2019-04-29T12:06:58.178Z,3.27
2019-04-29T12:09:30.443Z,3.33
2019-04-29T12:12:01.287Z,3.45
2019-04-29T12:14:33.736Z,3.83
2019-04-29T12:17:25.106Z,3.92
2019-04-29T12:19:57.085Z,3.60
2019-04-29T12:22:30.829Z,3.50
2019-04-29T12:24:59.461Z,3.60
2019-04-29T12:27:29.804Z,3.55
2019-04-29T12:30:00.359Z,3.40
2019-04-29T12:32:44.594Z,3.67
2019-04-29T12:35:30.272Z,3.37
2019-04-29T12:38:05.862Z,3.37
2019-04-29T12:40:36.609Z,3.47
2019-04-29T12:43:23.792Z,3.25
2019-04-29T12:45:58.585Z,3.35
2019-04-29T12:48:28.995Z,2.72
2019-04-29T12:50:59.707Z,2.90
2019-04-29T12:53:30.037Z,3.05
2019-04-29T12:56:00.372Z,2.60
2019-04-29T12:58:30.783Z,3.12
2019-04-29T13:01:05.871Z,2.60
2019-04-29T13:03:42.223Z,3.20
2019-04-29T13:06:24.261Z,2.75
2019-04-29T13:08:56.826Z,2.62
2019-04-29T13:11:37.452Z,2.58
2019-04-29T13:14:01.906Z,2.40
2019-04-29T13:16:35.139Z,2.17
2019-04-29T13:19:25.213Z,2.47
2019-04-29T13:21:54.500Z,1.85
2019-04-29T13:24:25.375Z,2.02
2019-04-29T13:26:55.952Z,2.10
2019-04-29T13:29:27.777Z,1.80
2019-04-29T13:32:01.644Z,2.58
2019-04-29T13:34:33.564Z,2.50
2019-04-29T13:37:12.306Z,2.30
2019-04-29T13:39:39.695Z,2.15
2019-04-29T13:42:11.425Z,1.80
2019-04-29T13:44:42.708Z,2.10
2019-04-29T13:47:28.624Z,2.20
2019-04-29T13:50:17.077Z,2.20
2019-04-29T13:52:32.127Z,1.98
2019-04-29T13:55:16.542Z,2.05
2019-04-29T13:57:34.570Z,2.25
2019-04-29T14:00:12.571Z,1.92
2019-04-29T14:02:58.833Z,1.80
2019-04-29T14:05:21.645Z,1.98
2019-04-29T14:07:52.747Z,2.05
2019-04-29T14:10:24.093Z,1.87
2019-04-29T14:13:08.966Z,2.10
2019-04-29T14:15:29.662Z,2.10
2019-04-29T14:17:58.567Z,1.95
2019-04-29T14:20:28.910Z,1.90
2019-04-29T14:22:59.250Z,1.98
2019-04-29T14:25:29.629Z,1.98
2019-04-29T14:28:00.083Z,2.02
2019-04-29T14:30:38.643Z,2.08
2019-04-29T14:33:03.325Z,2.00
2019-04-29T14:35:50.329Z,2.37
2019-04-29T14:38:23.940Z,1.72
2019-04-29T14:40:52.709Z,1.77
2019-04-29T14:43:36.503Z,1.80
2019-04-29T14:46:17.457Z,2.47
2019-04-29T14:48:55.286Z,1.65
2019-04-29T14:51:28.460Z,2.00
2019-04-29T14:54:01.384Z,2.10
2019-04-29T14:56:29.701Z,2.20
2019-04-29T14:59:07.103Z,2.02
2019-04-29T15:01:33.829Z,1.87
2019-04-29T15:04:18.278Z,1.72
2019-04-29T15:06:43.621Z,1.92
2019-04-29T15:09:17.943Z,1.85
2019-04-29T15:11:50.493Z,2.00
2019-04-29T15:14:40.870Z,2.02
2019-04-29T15:17:12.849Z,2.35
2019-04-29T15:19:57.637Z,2.17
2019-04-29T15:22:32.299Z,2.12
2019-04-29T15:25:02.632Z,2.65
2019-04-29T15:27:32.998Z,2.27
2019-04-29T15:30:05.356Z,2.20
2019-04-29T15:32:36.628Z,2.70
2019-04-29T15:35:08.005Z,2.52
2019-04-29T15:37:38.369Z,2.80
2019-04-29T15:40:10.249Z,2.70
2019-04-29T15:42:43.210Z,3.33
2019-04-29T15:45:12.942Z,2.85
2019-04-29T15:47:45.718Z,3.17
2019-04-29T15:50:18.687Z,3.25
2019-04-29T15:52:47.586Z,2.58
2019-04-29T15:55:17.902Z,3.00
2019-04-29T15:57:50.254Z,3.30
2019-04-29T16:00:22.690Z,2.75
2019-04-29T16:02:52.527Z,3.00
2019-04-29T16:05:24.506Z,2.90
2019-04-29T16:07:57.260Z,3.10
2019-04-29T16:10:39.397Z,2.30
2019-04-29T16:13:11.368Z,2.37
2019-04-29T16:15:41.715Z,2.67
2019-04-29T16:18:14.833Z,2.77
2019-04-29T16:20:44.093Z,2.72
2019-04-29T16:23:14.436Z,2.90
2019-04-29T16:28:16.832Z,3.15
2019-04-29T16:30:47.164Z,3.33
2019-04-29T16:33:17.524Z,3.50
2019-04-29T16:35:47.858Z,3.12
2019-04-29T16:38:18.202Z,3.20
2019-04-29T16:40:57.255Z,3.17
2019-04-29T16:43:41.228Z,3.12
2019-04-29T16:46:16.291Z,3.25
2019-04-29T16:48:46.623Z,2.90
2019-04-29T16:51:16.968Z,3.55
2019-04-29T16:53:47.367Z,3.17
2019-04-29T16:56:17.735Z,3.17
2019-04-29T16:58:50.132Z,3.35
2019-04-29T17:01:21.128Z,3.40
2019-04-29T17:03:51.841Z,3.58
2019-04-29T17:06:22.357Z,3.10
2019-04-29T17:09:04.965Z,3.40
2019-04-29T17:11:35.399Z,3.40
2019-04-29T17:14:10.056Z,3.60
2019-04-29T17:16:38.080Z,3.35
2019-04-29T17:19:08.492Z,3.10
2019-04-29T17:21:38.829Z,4.00
2019-04-29T17:24:09.170Z,4.22
2019-04-29T17:26:57.363Z,3.95
2019-04-29T17:29:38.948Z,3.83
2019-04-29T17:32:15.748Z,3.42
2019-04-29T17:34:58.652Z,3.87
2019-04-29T17:35:18.745Z,3.02
2019-04-29T17:37:23.350Z,3.17
2019-04-29T17:39:53.688Z,3.62
2019-04-29T17:42:27.584Z,3.10
2019-04-29T17:45:01.356Z,3.45
2019-04-29T17:47:32.069Z,3.12
2019-04-29T17:50:13.014Z,3.80
2019-04-29T17:52:43.423Z,3.77
2019-04-29T17:55:15.707Z,3.80
2019-04-29T17:57:50.376Z,3.98
2019-04-29T18:00:28.083Z,4.00
2019-04-29T18:03:12.980Z,4.03
2019-04-29T18:05:54.970Z,3.65
2019-04-29T18:08:21.343Z,3.75
2019-04-29T18:10:59.932Z,3.65
2019-04-29T18:13:28.246Z,3.75
2019-04-29T18:16:03.963Z,4.45
2019-04-29T18:18:43.204Z,4.08
2019-04-29T18:21:08.949Z,4.05
2019-04-29T18:23:51.563Z,3.60
2019-04-29T18:26:29.446Z,4.12
2019-04-29T18:29:03.428Z,3.62
2019-04-29T18:31:32.991Z,3.10
2019-04-29T18:34:03.335Z,3.70
2019-04-29T18:36:35.154Z,3.35
2019-04-29T18:39:09.448Z,3.00
2019-04-29T18:41:39.776Z,2.98
2019-04-29T18:44:18.877Z,2.65
2019-04-29T18:46:45.983Z,2.75
2019-04-29T18:49:15.921Z,3.05
2019-04-29T18:51:46.279Z,2.52
2019-04-29T18:54:16.699Z,2.50
2019-04-29T18:56:46.979Z,2.37
2019-04-29T18:59:21.033Z,2.90
2019-04-29T19:01:49.364Z,2.77
2019-04-29T19:04:29.935Z,2.83
2019-04-29T19:07:02.461Z,2.70
2019-04-29T19:09:35.847Z,2.90
2019-04-29T19:12:06.118Z,3.37
2019-04-29T19:14:36.458Z,3.60
2019-04-29T19:17:06.797Z,3.37
2019-04-29T19:19:39.387Z,3.50
2019-04-29T19:22:09.572Z,3.52
2019-04-29T19:24:39.996Z,3.40
2019-04-29T19:27:10.617Z,3.33
2019-04-29T19:29:43.197Z,3.33
2019-04-29T19:32:13.063Z,4.37
2019-04-29T19:34:45.704Z,3.70
2019-04-29T19:37:15.466Z,3.55
2019-04-29T19:39:45.790Z,4.05
2019-04-29T19:42:28.711Z,3.72
2019-04-29T19:44:48.170Z,3.52
2019-04-29T19:47:19.586Z,3.25
2019-04-29T19:49:49.925Z,3.95
2019-04-29T19:52:28.617Z,3.25
2019-04-29T19:54:52.309Z,3.22
2019-04-29T19:57:22.652Z,3.72
2019-04-29T19:59:54.504Z,3.37
2019-04-29T20:02:25.931Z,2.98
2019-04-29T20:04:59.660Z,2.75
2019-04-29T20:07:31.058Z,2.65
2019-04-29T20:10:05.264Z,3.15
2019-04-29T20:12:36.494Z,2.75
2019-04-29T20:15:08.853Z,2.98
2019-04-29T20:17:47.028Z,3.00
2019-04-29T20:20:25.308Z,3.00
2019-04-29T20:22:55.975Z,2.77
2019-04-29T20:25:30.934Z,2.90
2019-04-29T20:28:05.962Z,2.72
2019-04-29T20:30:30.580Z,2.72
2019-04-29T20:33:09.000Z,2.42
2019-04-29T20:35:33.109Z,2.70
2019-04-29T20:38:05.414Z,2.60
2019-04-29T20:40:41.520Z,3.10
2019-04-29T20:43:08.576Z,2.75
2019-04-29T20:45:39.218Z,3.35
2019-04-29T20:48:11.117Z,2.67
2019-04-29T20:50:46.089Z,2.62
2019-04-29T20:53:18.075Z,2.50
2019-04-29T20:55:48.564Z,2.60
2019-04-29T20:58:23.676Z,2.90
2019-04-29T21:00:51.111Z,2.95
2019-04-29T21:03:27.703Z,2.92
2019-04-29T21:05:54.946Z,3.00
2019-04-29T21:08:26.004Z,2.70
2019-04-29T21:10:57.953Z,2.25
2019-04-29T21:13:35.874Z,2.83
2019-04-29T21:16:07.843Z,2.55
2019-04-29T21:18:38.847Z,2.77
2019-04-29T21:21:10.367Z,3.25
2019-04-29T21:23:40.705Z,2.72
2019-04-29T21:26:11.041Z,2.75
2019-04-29T21:28:42.461Z,2.52
2019-04-29T21:31:16.582Z,2.33
2019-04-29T21:33:45.705Z,2.80
2019-04-29T21:36:20.600Z,2.50
2019-04-29T21:39:08.818Z,2.72
2019-04-29T21:41:55.534Z,2.25
2019-04-29T21:44:27.909Z,2.45
2019-04-29T21:46:59.619Z,2.95
2019-04-29T21:49:42.747Z,2.47
2019-04-29T21:52:02.959Z,2.27
2019-04-29T21:54:33.314Z,2.30
2019-04-29T21:57:05.676Z,2.55
2019-04-29T21:59:35.828Z,2.42
2019-04-29T22:02:11.403Z,3.00
2019-04-29T22:04:40.095Z,2.08
2019-04-29T22:07:29.834Z,2.02
2019-04-29T22:10:00.169Z,2.58
2019-04-29T22:12:30.505Z,2.70
2019-04-29T22:15:00.860Z,2.60
2019-04-29T22:17:32.920Z,2.47
2019-04-29T22:20:07.732Z,2.40
2019-04-29T22:22:38.446Z,2.52
2019-04-29T22:25:09.921Z,2.42
2019-04-29T22:27:41.248Z,2.27
2019-04-29T22:30:15.284Z,2.00
2019-04-29T22:32:46.939Z,2.02
2019-04-29T22:35:18.572Z,2.27
2019-04-29T22:37:48.904Z,2.67
2019-04-29T22:40:19.418Z,2.45
2019-04-29T22:43:04.697Z,2.30
2019-04-29T22:45:29.545Z,2.12
2019-04-29T22:48:14.173Z,2.70
2019-04-29T22:50:33.713Z,2.55
2019-04-29T22:53:07.281Z,2.47
2019-04-29T22:55:38.758Z,1.95
2019-04-29T22:58:09.622Z,2.25
2019-04-29T23:00:40.203Z,2.92
2019-04-29T23:03:10.555Z,2.47
2019-04-29T23:05:40.889Z,2.58
2019-04-29T23:08:11.246Z,2.60
2019-04-29T23:10:41.580Z,2.72
2019-04-29T23:13:11.937Z,2.80
2019-04-29T23:15:42.254Z,2.90
2019-04-29T23:18:23.880Z,3.02
2019-04-29T23:21:03.992Z,2.40
2019-04-29T23:23:42.461Z,2.77
2019-04-29T23:26:12.869Z,2.25
2019-04-29T23:28:43.209Z,3.22
2019-04-29T23:31:13.540Z,2.72
2019-04-29T23:33:45.687Z,2.75
2019-04-29T23:36:16.130Z,2.83
2019-04-29T23:38:47.396Z,3.02
2019-04-29T23:41:17.750Z,3.77
2019-04-29T23:43:48.090Z,2.70
2019-04-29T23:46:18.429Z,3.60
2019-04-29T23:48:48.764Z,3.72
2019-04-29T23:51:19.102Z,3.17
2019-04-29T23:53:49.431Z,3.17
2019-04-29T23:56:21.487Z,3.00
2019-04-29T23:58:59.421Z,3.08
